Skip Navigation Links
NOAA logo - Click to go to the NOAA homepage
NOAA's National Weather Service
Alaska Aviation Weather Unit
  NWS logo - Click to go to the NWS homepage
Left Navbar Graphic     17 AKDT = 01 GMT

   
NOAA is celebrating 200 years of science, service, and stewardship. Visit the NOAA 200th celebration Web site to learn more.
USA.gov is the U.S. Government's official Web portal to all Federal, state and local government Web resources and services.
Facebook
NWS on Facebook

Important Change Regarding the AAWU Web Presence

 

Over the last several months, the AAWU has been working to navigate its webpages to a nationally supported server. Security, as well as other needs, have necessitated the change.  In the process, we have made an effort to enhance the functionality of our website, as well as some of our products. As of June 27, 2017, aawu.arh.noaa.gov will be discontinued. The new AAWU web address is weather.gov/aawu. It is now live and will run in-parallel with the old site until it is discontinued. Please send any feedback or questions regarding the new webpages to nws.ar.aawu.webauthors@noaa.gov.  Thank you for your patience during this time of transition.
AAWU Home :: Display TAF Add Bookmark
TAF PABT 260112Z 2601/2624 22008G16KT P6SM VCSH FEW050 FEW090 SCT140
     FM260300 25004KT P6SM FEW060 SCT140
     FM261000 34004KT P6SM FEW060 SCT140
     FM261800 15004KT P6SM FEW060 SCT140=

METAR PABT 251953Z 16008KT 10SM FEW040 FEW075 SCT100 14/03 A2995 RMK AO2 SLP149 T01390033= METAR PABT 252053Z 23009KT 10SM FEW040 FEW075 SCT100 16/02 A2993 RMK AO2 SLP144 T01560022 58013= METAR PABT 252153Z 17009KT 130V200 10SM FEW050 FEW075 SCT100 17/03 A2992 RMK AO2 SLP139 T01670028= METAR PABT 252253Z 14010G17KT 100V200 10SM FEW050 FEW090 SCT140 18/01 A2990 RMK AO2 SLP131 T01830006= METAR PABT 252353Z 22007G15KT 180V250 10SM FEW050 FEW090 SCT140 19/M01 A2988 RMK AO2 SLP124 T01941006 10200 20106 58020=
 Alaska TAF Map

NOAA's National Weather Service
Alaska Aviation Weather Unit
6930 Sand Lake Road
Anchorage, AK 99502-1845
Disclaimer
Credits
Glossary
Privacy Policy
About Us
Career Opportunities
Contact AAWU Internet Services Site last modified: April, 17th 2012